sensor_id;sensor_type;location;lat;lon;timestamp;P1;durP1;ratioP1;P2;durP2;ratioP2
72125;SDS011;59999;51.676;22.650;2022-10-31T00:00:13;16.80;;;7.22;;
72125;SDS011;59999;51.676;22.650;2022-10-31T00:02:59;15.63;;;6.90;;
72125;SDS011;59999;51.676;22.650;2022-10-31T00:05:25;17.65;;;7.45;;
72125;SDS011;59999;51.676;22.650;2022-10-31T00:07:52;14.95;;;7.03;;
72125;SDS011;59999;51.676;22.650;2022-10-31T00:10:18;19.42;;;8.30;;
72125;SDS011;59999;51.676;22.650;2022-10-31T00:12:44;17.57;;;8.23;;
72125;SDS011;59999;51.676;22.650;2022-10-31T00:15:10;18.05;;;8.35;;
72125;SDS011;59999;51.676;22.650;2022-10-31T00:17:36;20.52;;;7.93;;
72125;SDS011;59999;51.676;22.650;2022-10-31T00:20:02;17.07;;;7.70;;
72125;SDS011;59999;51.676;22.650;2022-10-31T00:22:28;21.02;;;8.38;;
72125;SDS011;59999;51.676;22.650;2022-10-31T00:24:54;21.95;;;8.38;;
72125;SDS011;59999;51.676;22.650;2022-10-31T00:27:20;19.10;;;7.90;;
72125;SDS011;59999;51.676;22.650;2022-10-31T00:29:46;18.60;;;7.90;;
72125;SDS011;59999;51.676;22.650;2022-10-31T00:32:12;19.92;;;8.10;;
72125;SDS011;59999;51.676;22.650;2022-10-31T00:34:38;17.45;;;7.40;;
72125;SDS011;59999;51.676;22.650;2022-10-31T00:37:04;18.87;;;7.30;;
72125;SDS011;59999;51.676;22.650;2022-10-31T00:39:29;19.35;;;7.55;;
72125;SDS011;59999;51.676;22.650;2022-10-31T00:41:56;18.67;;;8.38;;
72125;SDS011;59999;51.676;22.650;2022-10-31T00:44:21;21.03;;;9.10;;
72125;SDS011;59999;51.676;22.650;2022-10-31T00:46:47;17.80;;;8.20;;
72125;SDS011;59999;51.676;22.650;2022-10-31T00:49:13;21.15;;;8.88;;
72125;SDS011;59999;51.676;22.650;2022-10-31T00:51:39;16.40;;;8.00;;
72125;SDS011;59999;51.676;22.650;2022-10-31T00:54:05;19.83;;;7.93;;
72125;SDS011;59999;51.676;22.650;2022-10-31T00:56:31;18.77;;;8.25;;
72125;SDS011;59999;51.676;22.650;2022-10-31T00:58:57;18.35;;;8.43;;
72125;SDS011;59999;51.676;22.650;2022-10-31T01:01:23;20.20;;;8.13;;
72125;SDS011;59999;51.676;22.650;2022-10-31T01:03:49;19.15;;;7.88;;
72125;SDS011;59999;51.676;22.650;2022-10-31T01:06:15;21.85;;;9.43;;
72125;SDS011;59999;51.676;22.650;2022-10-31T01:08:41;17.67;;;8.75;;
72125;SDS011;59999;51.676;22.650;2022-10-31T01:11:10;18.20;;;8.03;;
72125;SDS011;59999;51.676;22.650;2022-10-31T01:13:41;17.50;;;8.05;;
72125;SDS011;59999;51.676;22.650;2022-10-31T01:16:08;22.13;;;8.45;;
72125;SDS011;59999;51.676;22.650;2022-10-31T01:18:36;19.20;;;7.40;;
72125;SDS011;59999;51.676;22.650;2022-10-31T01:21:09;18.55;;;7.82;;
72125;SDS011;59999;51.676;22.650;2022-10-31T01:23:46;19.03;;;7.97;;
72125;SDS011;59999;51.676;22.650;2022-10-31T01:26:13;19.15;;;7.65;;
72125;SDS011;59999;51.676;22.650;2022-10-31T01:28:46;17.73;;;8.13;;
72125;SDS011;59999;51.676;22.650;2022-10-31T01:31:14;19.50;;;8.13;;
72125;SDS011;59999;51.676;22.650;2022-10-31T01:33:40;18.58;;;8.30;;
72125;SDS011;59999;51.676;22.650;2022-10-31T01:36:17;18.10;;;7.93;;
72125;SDS011;59999;51.676;22.650;2022-10-31T01:38:43;20.80;;;8.75;;
72125;SDS011;59999;51.676;22.650;2022-10-31T01:41:11;21.63;;;8.93;;
72125;SDS011;59999;51.676;22.650;2022-10-31T01:43:46;21.15;;;8.73;;
72125;SDS011;59999;51.676;22.650;2022-10-31T01:46:19;19.88;;;8.35;;
72125;SDS011;59999;51.676;22.650;2022-10-31T01:48:56;19.73;;;7.97;;
72125;SDS011;59999;51.676;22.650;2022-10-31T01:51:26;16.67;;;7.45;;
72125;SDS011;59999;51.676;22.650;2022-10-31T01:53:56;15.77;;;7.43;;
72125;SDS011;59999;51.676;22.650;2022-10-31T01:56:26;17.80;;;8.13;;
72125;SDS011;59999;51.676;22.650;2022-10-31T01:58:52;19.73;;;7.85;;
72125;SDS011;59999;51.676;22.650;2022-10-31T02:01:22;17.07;;;7.10;;
72125;SDS011;59999;51.676;22.650;2022-10-31T02:03:48;17.73;;;7.78;;
72125;SDS011;59999;51.676;22.650;2022-10-31T02:06:49;21.42;;;9.15;;
72125;SDS011;59999;51.676;22.650;2022-10-31T02:09:10;19.17;;;8.07;;
72125;SDS011;59999;51.676;22.650;2022-10-31T02:11:37;16.85;;;7.82;;
72125;SDS011;59999;51.676;22.650;2022-10-31T02:14:04;18.87;;;7.70;;
72125;SDS011;59999;51.676;22.650;2022-10-31T02:16:30;18.80;;;8.82;;
72125;SDS011;59999;51.676;22.650;2022-10-31T02:18:55;18.27;;;7.88;;
72125;SDS011;59999;51.676;22.650;2022-10-31T02:32:25;17.77;;;7.03;;
72125;SDS011;59999;51.676;22.650;2022-10-31T02:35:01;21.67;;;8.90;;
72125;SDS011;59999;51.676;22.650;2022-10-31T02:40:26;17.77;;;8.10;;
72125;SDS011;59999;51.676;22.650;2022-10-31T02:43:17;15.52;;;6.47;;
72125;SDS011;59999;51.676;22.650;2022-10-31T02:45:54;14.13;;;6.53;;
72125;SDS011;59999;51.676;22.650;2022-10-31T02:48:28;13.55;;;5.15;;
72125;SDS011;59999;51.676;22.650;2022-10-31T02:50:58;9.17;;;3.67;;
72125;SDS011;59999;51.676;22.650;2022-10-31T02:53:26;14.57;;;5.13;;
72125;SDS011;59999;51.676;22.650;2022-10-31T02:56:02;14.65;;;5.47;;
72125;SDS011;59999;51.676;22.650;2022-10-31T02:58:33;13.35;;;5.32;;
72125;SDS011;59999;51.676;22.650;2022-10-31T03:01:23;11.30;;;5.53;;
72125;SDS011;59999;51.676;22.650;2022-10-31T03:04:01;13.87;;;5.20;;
72125;SDS011;59999;51.676;22.650;2022-10-31T03:09:13;15.23;;;6.05;;
72125;SDS011;59999;51.676;22.650;2022-10-31T03:12:08;16.98;;;6.07;;
72125;SDS011;59999;51.676;22.650;2022-10-31T03:14:41;13.23;;;5.93;;
72125;SDS011;59999;51.676;22.650;2022-10-31T03:17:14;15.90;;;5.73;;
72125;SDS011;59999;51.676;22.650;2022-10-31T03:19:47;15.13;;;6.53;;
72125;SDS011;59999;51.676;22.650;2022-10-31T03:24:43;14.77;;;6.80;;
72125;SDS011;59999;51.676;22.650;2022-10-31T03:27:12;16.23;;;7.80;;
72125;SDS011;59999;51.676;22.650;2022-10-31T03:29:42;16.43;;;6.87;;
72125;SDS011;59999;51.676;22.650;2022-10-31T03:34:38;19.33;;;7.55;;
72125;SDS011;59999;51.676;22.650;2022-10-31T03:37:07;19.50;;;7.93;;
72125;SDS011;59999;51.676;22.650;2022-10-31T03:39:36;17.33;;;6.97;;
72125;SDS011;59999;51.676;22.650;2022-10-31T03:42:11;17.90;;;6.80;;
72125;SDS011;59999;51.676;22.650;2022-10-31T03:44:42;20.38;;;8.57;;
72125;SDS011;59999;51.676;22.650;2022-10-31T03:47:12;18.05;;;7.82;;
72125;SDS011;59999;51.676;22.650;2022-10-31T03:49:38;20.67;;;8.35;;
72125;SDS011;59999;51.676;22.650;2022-10-31T03:54:36;78.33;;;9.93;;
72125;SDS011;59999;51.676;22.650;2022-10-31T03:57:09;47.65;;;10.07;;
72125;SDS011;59999;51.676;22.650;2022-10-31T03:59:46;82.13;;;12.15;;
72125;SDS011;59999;51.676;22.650;2022-10-31T04:02:18;60.92;;;11.27;;
72125;SDS011;59999;51.676;22.650;2022-10-31T04:04:47;57.00;;;9.98;;
72125;SDS011;59999;51.676;22.650;2022-10-31T04:07:15;117.20;;;13.40;;
72125;SDS011;59999;51.676;22.650;2022-10-31T04:09:43;141.70;;;13.43;;
72125;SDS011;59999;51.676;22.650;2022-10-31T04:12:12;28.08;;;9.68;;
72125;SDS011;59999;51.676;22.650;2022-10-31T04:14:41;31.90;;;9.45;;
72125;SDS011;59999;51.676;22.650;2022-10-31T04:17:11;29.80;;;9.65;;
72125;SDS011;59999;51.676;22.650;2022-10-31T04:19:39;27.37;;;9.27;;
72125;SDS011;59999;51.676;22.650;2022-10-31T04:22:05;20.33;;;7.95;;
72125;SDS011;59999;51.676;22.650;2022-10-31T04:24:32;39.22;;;8.45;;
72125;SDS011;59999;51.676;22.650;2022-10-31T04:26:57;55.63;;;9.25;;
72125;SDS011;59999;51.676;22.650;2022-10-31T04:29:24;40.25;;;8.15;;
72125;SDS011;59999;51.676;22.650;2022-10-31T04:31:49;28.95;;;8.43;;
72125;SDS011;59999;51.676;22.650;2022-10-31T04:34:16;40.28;;;8.57;;
72125;SDS011;59999;51.676;22.650;2022-10-31T04:36:41;34.60;;;8.87;;
72125;SDS011;59999;51.676;22.650;2022-10-31T04:39:08;63.65;;;9.35;;
72125;SDS011;59999;51.676;22.650;2022-10-31T04:41:33;45.42;;;9.65;;
72125;SDS011;59999;51.676;22.650;2022-10-31T04:43:59;29.15;;;9.13;;
72125;SDS011;59999;51.676;22.650;2022-10-31T04:46:25;21.30;;;7.63;;
72125;SDS011;59999;51.676;22.650;2022-10-31T04:48:51;21.83;;;7.40;;
72125;SDS011;59999;51.676;22.650;2022-10-31T04:51:17;31.73;;;7.63;;
72125;SDS011;59999;51.676;22.650;2022-10-31T04:53:43;16.50;;;6.63;;
72125;SDS011;59999;51.676;22.650;2022-10-31T04:56:09;17.73;;;6.43;;
72125;SDS011;59999;51.676;22.650;2022-10-31T04:58:35;15.38;;;6.22;;
72125;SDS011;59999;51.676;22.650;2022-10-31T05:01:01;15.60;;;5.67;;
72125;SDS011;59999;51.676;22.650;2022-10-31T05:03:27;15.93;;;5.65;;
72125;SDS011;59999;51.676;22.650;2022-10-31T05:05:53;15.50;;;5.45;;
72125;SDS011;59999;51.676;22.650;2022-10-31T05:08:19;13.48;;;5.70;;
72125;SDS011;59999;51.676;22.650;2022-10-31T05:10:44;15.23;;;5.67;;
72125;SDS011;59999;51.676;22.650;2022-10-31T05:13:11;15.07;;;6.35;;
72125;SDS011;59999;51.676;22.650;2022-10-31T05:15:37;27.08;;;6.80;;
72125;SDS011;59999;51.676;22.650;2022-10-31T05:18:02;26.17;;;6.32;;
72125;SDS011;59999;51.676;22.650;2022-10-31T05:20:29;32.88;;;6.30;;
72125;SDS011;59999;51.676;22.650;2022-10-31T05:22:56;31.15;;;6.70;;
72125;SDS011;59999;51.676;22.650;2022-10-31T05:25:23;27.83;;;5.28;;
72125;SDS011;59999;51.676;22.650;2022-10-31T05:27:51;17.08;;;5.35;;
72125;SDS011;59999;51.676;22.650;2022-10-31T05:30:22;13.75;;;5.68;;
72125;SDS011;59999;51.676;22.650;2022-10-31T05:32:50;14.77;;;6.13;;
72125;SDS011;59999;51.676;22.650;2022-10-31T05:35:21;18.58;;;5.95;;
72125;SDS011;59999;51.676;22.650;2022-10-31T05:37:49;18.17;;;6.10;;
72125;SDS011;59999;51.676;22.650;2022-10-31T05:40:16;19.65;;;6.95;;
72125;SDS011;59999;51.676;22.650;2022-10-31T05:42:43;19.30;;;6.22;;
72125;SDS011;59999;51.676;22.650;2022-10-31T05:45:13;19.98;;;6.13;;
72125;SDS011;59999;51.676;22.650;2022-10-31T05:47:40;20.88;;;6.20;;
72125;SDS011;59999;51.676;22.650;2022-10-31T05:50:07;32.88;;;6.82;;
72125;SDS011;59999;51.676;22.650;2022-10-31T05:52:34;24.88;;;6.72;;
72125;SDS011;59999;51.676;22.650;2022-10-31T05:55:01;26.83;;;7.22;;
72125;SDS011;59999;51.676;22.650;2022-10-31T05:57:28;37.08;;;7.00;;
72125;SDS011;59999;51.676;22.650;2022-10-31T05:59:54;30.25;;;7.30;;
72125;SDS011;59999;51.676;22.650;2022-10-31T06:02:20;32.58;;;7.90;;
72125;SDS011;59999;51.676;22.650;2022-10-31T06:04:47;30.90;;;7.75;;
72125;SDS011;59999;51.676;22.650;2022-10-31T06:07:13;32.22;;;7.65;;
72125;SDS011;59999;51.676;22.650;2022-10-31T06:09:39;28.65;;;8.05;;
72125;SDS011;59999;51.676;22.650;2022-10-31T06:12:05;29.10;;;7.65;;
72125;SDS011;59999;51.676;22.650;2022-10-31T06:14:31;26.10;;;8.95;;
72125;SDS011;59999;51.676;22.650;2022-10-31T06:16:57;32.27;;;8.60;;
72125;SDS011;59999;51.676;22.650;2022-10-31T06:19:23;33.75;;;8.35;;
72125;SDS011;59999;51.676;22.650;2022-10-31T06:21:49;34.35;;;9.50;;
72125;SDS011;59999;51.676;22.650;2022-10-31T06:24:15;45.58;;;10.73;;
72125;SDS011;59999;51.676;22.650;2022-10-31T06:26:41;62.27;;;12.37;;
72125;SDS011;59999;51.676;22.650;2022-10-31T06:29:07;59.92;;;11.25;;
72125;SDS011;59999;51.676;22.650;2022-10-31T06:31:33;48.20;;;10.23;;
72125;SDS011;59999;51.676;22.650;2022-10-31T06:33:59;46.25;;;9.13;;
72125;SDS011;59999;51.676;22.650;2022-10-31T06:36:24;41.90;;;8.50;;
72125;SDS011;59999;51.676;22.650;2022-10-31T06:38:50;48.95;;;9.35;;
72125;SDS011;59999;51.676;22.650;2022-10-31T06:41:16;49.23;;;10.27;;
72125;SDS011;59999;51.676;22.650;2022-10-31T06:43:45;61.70;;;10.70;;
72125;SDS011;59999;51.676;22.650;2022-10-31T06:46:12;50.63;;;11.25;;
72125;SDS011;59999;51.676;22.650;2022-10-31T06:48:38;47.90;;;11.52;;
72125;SDS011;59999;51.676;22.650;2022-10-31T06:51:06;40.47;;;11.47;;
72125;SDS011;59999;51.676;22.650;2022-10-31T06:53:32;56.67;;;12.07;;
72125;SDS011;59999;51.676;22.650;2022-10-31T06:55:58;43.15;;;11.70;;
72125;SDS011;59999;51.676;22.650;2022-10-31T06:58:25;53.05;;;13.30;;
72125;SDS011;59999;51.676;22.650;2022-10-31T07:00:51;52.77;;;13.07;;
72125;SDS011;59999;51.676;22.650;2022-10-31T07:03:17;47.58;;;12.65;;
72125;SDS011;59999;51.676;22.650;2022-10-31T07:05:43;51.40;;;11.48;;
72125;SDS011;59999;51.676;22.650;2022-10-31T07:08:10;46.85;;;11.00;;
72125;SDS011;59999;51.676;22.650;2022-10-31T07:10:38;50.80;;;12.02;;
72125;SDS011;59999;51.676;22.650;2022-10-31T07:13:06;58.00;;;11.50;;
72125;SDS011;59999;51.676;22.650;2022-10-31T07:15:37;60.45;;;12.05;;
72125;SDS011;59999;51.676;22.650;2022-10-31T07:18:05;43.08;;;11.77;;
72125;SDS011;59999;51.676;22.650;2022-10-31T07:20:34;48.97;;;11.77;;
72125;SDS011;59999;51.676;22.650;2022-10-31T07:23:00;47.90;;;12.15;;
72125;SDS011;59999;51.676;22.650;2022-10-31T07:25:26;51.63;;;12.87;;
72125;SDS011;59999;51.676;22.650;2022-10-31T07:27:52;52.75;;;11.32;;
72125;SDS011;59999;51.676;22.650;2022-10-31T07:30:18;65.70;;;13.83;;
72125;SDS011;59999;51.676;22.650;2022-10-31T07:32:48;67.53;;;12.53;;
72125;SDS011;59999;51.676;22.650;2022-10-31T07:35:19;42.58;;;10.18;;
72125;SDS011;59999;51.676;22.650;2022-10-31T07:37:47;51.38;;;11.85;;
72125;SDS011;59999;51.676;22.650;2022-10-31T07:40:13;55.92;;;11.68;;
72125;SDS011;59999;51.676;22.650;2022-10-31T07:42:40;46.63;;;11.60;;
72125;SDS011;59999;51.676;22.650;2022-10-31T07:45:09;50.43;;;12.10;;
72125;SDS011;59999;51.676;22.650;2022-10-31T07:47:44;48.00;;;11.13;;
72125;SDS011;59999;51.676;22.650;2022-10-31T07:50:18;45.92;;;11.38;;
72125;SDS011;59999;51.676;22.650;2022-10-31T07:52:45;33.28;;;10.85;;
72125;SDS011;59999;51.676;22.650;2022-10-31T07:55:12;43.40;;;11.60;;
72125;SDS011;59999;51.676;22.650;2022-10-31T07:57:38;49.33;;;10.93;;
72125;SDS011;59999;51.676;22.650;2022-10-31T08:00:07;40.75;;;11.23;;
72125;SDS011;59999;51.676;22.650;2022-10-31T08:02:35;42.70;;;11.75;;
72125;SDS011;59999;51.676;22.650;2022-10-31T08:05:01;30.08;;;10.63;;
72125;SDS011;59999;51.676;22.650;2022-10-31T08:07:27;35.77;;;10.43;;
72125;SDS011;59999;51.676;22.650;2022-10-31T08:09:53;39.47;;;11.15;;
72125;SDS011;59999;51.676;22.650;2022-10-31T08:12:20;32.20;;;10.93;;
72125;SDS011;59999;51.676;22.650;2022-10-31T08:14:46;32.55;;;10.43;;
72125;SDS011;59999;51.676;22.650;2022-10-31T08:17:12;26.88;;;9.27;;
72125;SDS011;59999;51.676;22.650;2022-10-31T08:19:38;26.33;;;9.47;;
72125;SDS011;59999;51.676;22.650;2022-10-31T08:22:04;29.92;;;9.23;;
72125;SDS011;59999;51.676;22.650;2022-10-31T08:24:30;25.38;;;9.55;;
72125;SDS011;59999;51.676;22.650;2022-10-31T08:26:56;25.23;;;8.70;;
72125;SDS011;59999;51.676;22.650;2022-10-31T08:29:22;26.35;;;9.82;;
72125;SDS011;59999;51.676;22.650;2022-10-31T08:31:48;27.13;;;9.77;;
72125;SDS011;59999;51.676;22.650;2022-10-31T08:34:14;26.63;;;10.73;;
72125;SDS011;59999;51.676;22.650;2022-10-31T08:36:40;30.33;;;9.52;;
72125;SDS011;59999;51.676;22.650;2022-10-31T08:39:07;28.70;;;9.85;;
72125;SDS011;59999;51.676;22.650;2022-10-31T08:41:33;26.10;;;9.15;;
72125;SDS011;59999;51.676;22.650;2022-10-31T08:44:00;25.35;;;9.65;;
72125;SDS011;59999;51.676;22.650;2022-10-31T08:46:26;24.23;;;9.17;;
72125;SDS011;59999;51.676;22.650;2022-10-31T08:48:53;29.27;;;10.13;;
72125;SDS011;59999;51.676;22.650;2022-10-31T08:51:19;35.72;;;10.50;;
72125;SDS011;59999;51.676;22.650;2022-10-31T08:53:45;30.67;;;10.23;;
72125;SDS011;59999;51.676;22.650;2022-10-31T08:56:11;24.00;;;9.30;;
72125;SDS011;59999;51.676;22.650;2022-10-31T08:58:37;25.17;;;10.05;;
72125;SDS011;59999;51.676;22.650;2022-10-31T09:01:03;28.85;;;10.00;;
72125;SDS011;59999;51.676;22.650;2022-10-31T09:03:29;27.83;;;10.30;;
72125;SDS011;59999;51.676;22.650;2022-10-31T09:05:58;23.42;;;10.05;;
72125;SDS011;59999;51.676;22.650;2022-10-31T09:08:26;32.10;;;10.07;;
72125;SDS011;59999;51.676;22.650;2022-10-31T09:10:55;29.17;;;9.57;;
72125;SDS011;59999;51.676;22.650;2022-10-31T09:13:22;26.73;;;10.77;;
72125;SDS011;59999;51.676;22.650;2022-10-31T09:15:49;26.90;;;9.90;;
72125;SDS011;59999;51.676;22.650;2022-10-31T09:18:16;32.05;;;10.88;;
72125;SDS011;59999;51.676;22.650;2022-10-31T09:20:44;35.30;;;10.70;;
72125;SDS011;59999;51.676;22.650;2022-10-31T09:25:39;30.90;;;11.73;;
72125;SDS011;59999;51.676;22.650;2022-10-31T09:28:05;27.80;;;11.15;;
72125;SDS011;59999;51.676;22.650;2022-10-31T09:30:33;28.33;;;10.38;;
72125;SDS011;59999;51.676;22.650;2022-10-31T09:33:01;24.13;;;9.90;;
72125;SDS011;59999;51.676;22.650;2022-10-31T09:35:29;23.67;;;10.45;;
72125;SDS011;59999;51.676;22.650;2022-10-31T09:37:56;23.95;;;9.32;;
72125;SDS011;59999;51.676;22.650;2022-10-31T09:40:24;24.45;;;10.00;;
72125;SDS011;59999;51.676;22.650;2022-10-31T09:43:03;24.73;;;10.05;;
72125;SDS011;59999;51.676;22.650;2022-10-31T09:48:37;26.20;;;10.40;;
72125;SDS011;59999;51.676;22.650;2022-10-31T09:54:02;33.15;;;12.90;;
72125;SDS011;59999;51.676;22.650;2022-10-31T09:56:30;24.67;;;10.38;;
72125;SDS011;59999;51.676;22.650;2022-10-31T09:59:01;25.47;;;10.63;;
72125;SDS011;59999;51.676;22.650;2022-10-31T10:01:49;27.27;;;11.27;;
72125;SDS011;59999;51.676;22.650;2022-10-31T10:06:59;27.02;;;10.55;;
72125;SDS011;59999;51.676;22.650;2022-10-31T10:09:28;27.73;;;10.85;;
72125;SDS011;59999;51.676;22.650;2022-10-31T10:12:00;22.83;;;10.43;;
72125;SDS011;59999;51.676;22.650;2022-10-31T10:25:44;24.03;;;10.10;;
72125;SDS011;59999;51.676;22.650;2022-10-31T10:28:17;23.67;;;9.20;;
72125;SDS011;59999;51.676;22.650;2022-10-31T10:33:36;27.05;;;11.60;;
72125;SDS011;59999;51.676;22.650;2022-10-31T10:36:09;30.17;;;13.52;;
72125;SDS011;59999;51.676;22.650;2022-10-31T10:39:00;31.83;;;12.40;;
72125;SDS011;59999;51.676;22.650;2022-10-31T10:41:32;32.42;;;13.00;;
72125;SDS011;59999;51.676;22.650;2022-10-31T10:43:59;27.08;;;12.18;;
72125;SDS011;59999;51.676;22.650;2022-10-31T10:49:12;26.30;;;11.70;;
72125;SDS011;59999;51.676;22.650;2022-10-31T10:51:47;30.52;;;12.27;;
72125;SDS011;59999;51.676;22.650;2022-10-31T11:00:27;29.52;;;12.82;;
72125;SDS011;59999;51.676;22.650;2022-10-31T11:03:01;31.50;;;13.97;;
72125;SDS011;59999;51.676;22.650;2022-10-31T11:08:27;28.35;;;12.30;;
72125;SDS011;59999;51.676;22.650;2022-10-31T11:11:13;28.13;;;12.10;;
72125;SDS011;59999;51.676;22.650;2022-10-31T11:13:52;29.40;;;11.65;;
72125;SDS011;59999;51.676;22.650;2022-10-31T11:16:29;23.63;;;10.47;;
72125;SDS011;59999;51.676;22.650;2022-10-31T11:19:13;23.15;;;10.80;;
72125;SDS011;59999;51.676;22.650;2022-10-31T11:21:46;23.60;;;9.90;;
72125;SDS011;59999;51.676;22.650;2022-10-31T11:24:14;22.33;;;9.32;;
72125;SDS011;59999;51.676;22.650;2022-10-31T11:26:43;24.50;;;10.93;;
72125;SDS011;59999;51.676;22.650;2022-10-31T11:29:14;28.90;;;12.40;;
72125;SDS011;59999;51.676;22.650;2022-10-31T11:31:43;29.73;;;12.55;;
72125;SDS011;59999;51.676;22.650;2022-10-31T11:34:14;24.70;;;12.18;;
72125;SDS011;59999;51.676;22.650;2022-10-31T11:36:45;30.88;;;12.23;;
72125;SDS011;59999;51.676;22.650;2022-10-31T11:39:18;31.02;;;13.10;;
72125;SDS011;59999;51.676;22.650;2022-10-31T11:41:47;26.37;;;11.20;;
72125;SDS011;59999;51.676;22.650;2022-10-31T11:44:16;27.67;;;11.77;;
72125;SDS011;59999;51.676;22.650;2022-10-31T11:46:57;28.88;;;12.60;;
72125;SDS011;59999;51.676;22.650;2022-10-31T11:49:28;25.67;;;11.35;;
72125;SDS011;59999;51.676;22.650;2022-10-31T11:52:22;25.05;;;11.07;;
72125;SDS011;59999;51.676;22.650;2022-10-31T11:54:55;28.00;;;11.83;;
72125;SDS011;59999;51.676;22.650;2022-10-31T11:57:22;27.00;;;11.05;;
72125;SDS011;59999;51.676;22.650;2022-10-31T11:59:52;27.05;;;11.60;;
72125;SDS011;59999;51.676;22.650;2022-10-31T12:02:20;26.05;;;11.45;;
72125;SDS011;59999;51.676;22.650;2022-10-31T12:04:48;26.88;;;11.00;;
72125;SDS011;59999;51.676;22.650;2022-10-31T12:07:32;29.13;;;11.83;;
72125;SDS011;59999;51.676;22.650;2022-10-31T12:09:58;25.85;;;11.32;;
72125;SDS011;59999;51.676;22.650;2022-10-31T12:15:03;27.73;;;11.98;;
72125;SDS011;59999;51.676;22.650;2022-10-31T12:18:06;26.57;;;11.40;;
72125;SDS011;59999;51.676;22.650;2022-10-31T12:23:42;29.48;;;12.02;;
72125;SDS011;59999;51.676;22.650;2022-10-31T12:40:41;26.00;;;10.85;;
72125;SDS011;59999;51.676;22.650;2022-10-31T12:46:14;24.67;;;10.83;;
72125;SDS011;59999;51.676;22.650;2022-10-31T12:48:54;25.35;;;10.43;;
72125;SDS011;59999;51.676;22.650;2022-10-31T12:51:37;24.52;;;11.27;;
72125;SDS011;59999;51.676;22.650;2022-10-31T12:54:34;24.20;;;10.48;;
72125;SDS011;59999;51.676;22.650;2022-10-31T12:57:28;25.08;;;10.65;;
72125;SDS011;59999;51.676;22.650;2022-10-31T13:00:02;28.10;;;11.33;;
72125;SDS011;59999;51.676;22.650;2022-10-31T13:02:46;23.67;;;11.38;;
72125;SDS011;59999;51.676;22.650;2022-10-31T13:05:41;25.30;;;11.95;;
72125;SDS011;59999;51.676;22.650;2022-10-31T13:08:30;28.35;;;13.05;;
72125;SDS011;59999;51.676;22.650;2022-10-31T13:17:03;31.17;;;12.48;;
72125;SDS011;59999;51.676;22.650;2022-10-31T13:19:35;29.90;;;12.32;;
72125;SDS011;59999;51.676;22.650;2022-10-31T13:22:06;32.63;;;12.88;;
72125;SDS011;59999;51.676;22.650;2022-10-31T13:24:38;28.17;;;12.18;;
72125;SDS011;59999;51.676;22.650;2022-10-31T13:27:29;28.57;;;12.03;;
72125;SDS011;59999;51.676;22.650;2022-10-31T13:30:14;29.45;;;11.80;;
72125;SDS011;59999;51.676;22.650;2022-10-31T13:35:21;30.98;;;12.32;;
72125;SDS011;59999;51.676;22.650;2022-10-31T13:38:02;26.42;;;12.05;;
72125;SDS011;59999;51.676;22.650;2022-10-31T13:45:53;30.45;;;12.27;;
72125;SDS011;59999;51.676;22.650;2022-10-31T13:51:09;26.40;;;11.45;;
72125;SDS011;59999;51.676;22.650;2022-10-31T13:56:26;30.02;;;12.02;;
72125;SDS011;59999;51.676;22.650;2022-10-31T13:59:03;26.02;;;11.60;;
72125;SDS011;59999;51.676;22.650;2022-10-31T14:01:36;29.50;;;12.40;;
72125;SDS011;59999;51.676;22.650;2022-10-31T14:04:03;29.92;;;12.95;;
72125;SDS011;59999;51.676;22.650;2022-10-31T14:06:35;28.73;;;12.87;;
72125;SDS011;59999;51.676;22.650;2022-10-31T14:09:05;36.90;;;14.27;;
72125;SDS011;59999;51.676;22.650;2022-10-31T14:11:42;29.52;;;12.73;;
72125;SDS011;59999;51.676;22.650;2022-10-31T14:14:12;36.40;;;14.80;;
72125;SDS011;59999;51.676;22.650;2022-10-31T14:16:39;29.60;;;14.45;;
72125;SDS011;59999;51.676;22.650;2022-10-31T14:19:13;31.40;;;13.93;;
72125;SDS011;59999;51.676;22.650;2022-10-31T14:21:46;31.02;;;14.30;;
72125;SDS011;59999;51.676;22.650;2022-10-31T14:24:30;41.08;;;19.63;;
72125;SDS011;59999;51.676;22.650;2022-10-31T14:27:03;85.93;;;31.15;;
72125;SDS011;59999;51.676;22.650;2022-10-31T14:29:49;74.38;;;29.65;;
72125;SDS011;59999;51.676;22.650;2022-10-31T14:32:24;34.80;;;15.47;;
72125;SDS011;59999;51.676;22.650;2022-10-31T14:34:52;51.40;;;23.05;;
72125;SDS011;59999;51.676;22.650;2022-10-31T14:37:27;42.55;;;18.42;;
72125;SDS011;59999;51.676;22.650;2022-10-31T14:40:17;31.88;;;14.20;;
72125;SDS011;59999;51.676;22.650;2022-10-31T14:43:39;33.50;;;12.90;;
72125;SDS011;59999;51.676;22.650;2022-10-31T14:51:10;35.70;;;14.50;;
72125;SDS011;59999;51.676;22.650;2022-10-31T14:53:45;31.42;;;13.75;;
72125;SDS011;59999;51.676;22.650;2022-10-31T14:56:17;31.05;;;13.02;;
72125;SDS011;59999;51.676;22.650;2022-10-31T14:58:47;28.93;;;12.30;;
72125;SDS011;59999;51.676;22.650;2022-10-31T15:01:30;28.15;;;11.65;;
72125;SDS011;59999;51.676;22.650;2022-10-31T15:04:22;29.55;;;12.15;;
72125;SDS011;59999;51.676;22.650;2022-10-31T15:09:38;25.30;;;10.95;;
72125;SDS011;59999;51.676;22.650;2022-10-31T15:12:25;29.07;;;10.67;;
72125;SDS011;59999;51.676;22.650;2022-10-31T15:14:56;25.30;;;11.55;;
72125;SDS011;59999;51.676;22.650;2022-10-31T15:17:24;26.70;;;11.90;;
72125;SDS011;59999;51.676;22.650;2022-10-31T15:19:51;26.08;;;10.32;;
72125;SDS011;59999;51.676;22.650;2022-10-31T15:22:19;26.48;;;10.90;;
72125;SDS011;59999;51.676;22.650;2022-10-31T15:24:48;27.57;;;10.20;;
72125;SDS011;59999;51.676;22.650;2022-10-31T15:27:17;26.35;;;10.20;;
72125;SDS011;59999;51.676;22.650;2022-10-31T15:29:50;28.05;;;10.27;;
72125;SDS011;59999;51.676;22.650;2022-10-31T15:32:25;28.27;;;11.02;;
72125;SDS011;59999;51.676;22.650;2022-10-31T15:34:53;26.40;;;10.70;;
72125;SDS011;59999;51.676;22.650;2022-10-31T15:37:21;27.73;;;10.93;;
72125;SDS011;59999;51.676;22.650;2022-10-31T15:39:50;31.55;;;12.05;;
72125;SDS011;59999;51.676;22.650;2022-10-31T15:42:18;32.65;;;12.13;;
72125;SDS011;59999;51.676;22.650;2022-10-31T15:44:52;43.58;;;13.80;;
72125;SDS011;59999;51.676;22.650;2022-10-31T15:47:31;56.75;;;18.83;;
72125;SDS011;59999;51.676;22.650;2022-10-31T15:49:59;78.40;;;22.43;;
72125;SDS011;59999;51.676;22.650;2022-10-31T15:57:45;92.53;;;15.18;;
72125;SDS011;59999;51.676;22.650;2022-10-31T16:03:06;98.83;;;14.53;;
72125;SDS011;59999;51.676;22.650;2022-10-31T16:05:46;79.32;;;12.18;;
72125;SDS011;59999;51.676;22.650;2022-10-31T16:13:31;91.63;;;13.80;;
72125;SDS011;59999;51.676;22.650;2022-10-31T16:16:01;113.47;;;12.87;;
72125;SDS011;59999;51.676;22.650;2022-10-31T16:18:29;85.50;;;12.38;;
72125;SDS011;59999;51.676;22.650;2022-10-31T16:21:00;86.25;;;12.35;;
72125;SDS011;59999;51.676;22.650;2022-10-31T16:23:26;109.82;;;12.38;;
72125;SDS011;59999;51.676;22.650;2022-10-31T16:25:53;116.47;;;12.20;;
72125;SDS011;59999;51.676;22.650;2022-10-31T16:28:23;91.57;;;11.63;;
72125;SDS011;59999;51.676;22.650;2022-10-31T16:30:52;91.60;;;12.20;;
72125;SDS011;59999;51.676;22.650;2022-10-31T16:33:29;110.72;;;12.65;;
72125;SDS011;59999;51.676;22.650;2022-10-31T16:35:56;95.38;;;12.88;;